LVK weather

Livermore Municipal Airport
Livermore, California, United States

Public forecast

Using degrees Fahrenheit for public forecast. Weather courtesy of forecast.io.

METAR (pilot weather report)

Retrieved 2019/03/23 14:21 UTC (0 seconds ago):

KLVK 231421Z 00000KT 8SM BKN029 BKN036 OVC100 10/09 A3014 RMK AO2 T01000094

TAF (pilot weather forecast)

Retrieved 2019/03/23 12:27 UTC (2 hours ago):

TAF KLVK 231124Z 2312/2412 24005KT 4SM -RA SCT025 OVC050 FM231300 25005KT 6SM BR VCSH SCT025 BKN050 FM231700 26007KT P6SM SCT030 SCT050 FM232000 26009KT P6SM SCT050 FM240300 27006KT P6SM FEW200 FM240700 VRB03KT 6SM BR FEW010 FEW200